»·PEaware :: UPS258 KPAE-KPDX

UPS258 :: KPAE-KPDX

FLIGHT INFORMATION

Flight Status: Arrived
Operator:
United Parcel Service
More flights by this operator :: More flights under this callsign
Pilot: Brad M. (22842)
Aircraft: Unknown
(B748)
More flights by this aircraft type
Origin: KPAE Snohomish Co
United States
Destination: KPDX Portland Intl
United States
More flights between these airports :: More routes between these airports
Route: +PAINE6 BUWZO KRATR2
File this flight plan on PilotEdge
Remarks:
Altitude:
(Current/Filed)
23,000ft
Speed:
(Current/Filed)
450kts
Departed: 20-Aug-19 03:51 PM
Arrived: 20-Aug-19 04:24 PM
Distance/Time
Traveled:
140nm/0:32
Distance/Time
To Go:
Arrived

Flight Plot

Page will automatically refresh every two minutes.

Flight plan parsing failed; only flown route is shown


Map Options




Map Legend


Flown Route
Filed Route
Departure Airport
Arrival Airport
Navaid (VOR, NDB)
Fix

Horizontal Profiles

Position Reports

Time Latitude Longitude Heading Altitude Ground
Speed
20-Aug-19 15:04 47.912171 -122.279663 359 574ft 0kts
20-Aug-19 15:05 47.912171 -122.279663 359 574ft 0kts
20-Aug-19 15:06 47.912171 -122.279663 359 574ft 0kts
20-Aug-19 15:07 47.912171 -122.279663 359 574ft 0kts
20-Aug-19 15:08 47.912171 -122.279663 359 574ft 0kts
20-Aug-19 15:09 47.912171 -122.279663 359 574ft 0kts
20-Aug-19 15:10 47.912171 -122.279663 359 574ft 0kts
20-Aug-19 15:11 47.912171 -122.279663 359 574ft 0kts
20-Aug-19 15:12 47.912171 -122.279663 359 574ft 0kts
20-Aug-19 15:13 47.912171 -122.279663 359 574ft 0kts
20-Aug-19 15:14 47.912171 -122.279663 359 574ft 0kts
20-Aug-19 15:15 47.912171 -122.279663 359 574ft 0kts
20-Aug-19 15:16 47.912171 -122.279663 359 574ft 0kts
20-Aug-19 15:17 47.912171 -122.279663 359 574ft 0kts
20-Aug-19 15:18 47.912171 -122.279663 359 574ft 0kts
20-Aug-19 15:19 47.912171 -122.279663 359 574ft 0kts
20-Aug-19 15:20 47.912171 -122.279663 359 574ft 0kts
20-Aug-19 15:21 47.912171 -122.279663 359 574ft 0kts
20-Aug-19 15:22 47.912171 -122.279663 359 574ft 0kts
20-Aug-19 15:23 47.912171 -122.279663 359 574ft 0kts
20-Aug-19 15:24 47.912171 -122.279663 0 574ft 0kts
20-Aug-19 15:25 47.912171 -122.279663 0 574ft 0kts
20-Aug-19 15:26 47.912171 -122.279663 0 574ft 0kts
20-Aug-19 15:27 47.912171 -122.279663 0 574ft 0kts
20-Aug-19 15:28 47.912171 -122.279663 0 574ft 0kts
20-Aug-19 15:29 47.912171 -122.279663 0 574ft 0kts
20-Aug-19 15:30 47.912171 -122.279663 0 574ft 0kts
20-Aug-19 15:31 47.912171 -122.279663 0 574ft 0kts
20-Aug-19 15:32 47.912171 -122.279663 0 574ft 0kts
20-Aug-19 15:33 47.912171 -122.279663 0 574ft 0kts
20-Aug-19 15:34 47.912171 -122.279663 0 574ft 0kts
20-Aug-19 15:35 47.912171 -122.279663 0 574ft 0kts
20-Aug-19 15:36 47.912171 -122.279663 0 574ft 0kts
20-Aug-19 15:37 47.912171 -122.279663 0 574ft 0kts
20-Aug-19 15:38 47.912171 -122.279663 0 574ft 0kts
20-Aug-19 15:39 47.912171 -122.279663 0 574ft 0kts
20-Aug-19 15:40 47.912171 -122.279663 0 574ft 0kts
20-Aug-19 15:41 47.912171 -122.279663 0 574ft 0kts
20-Aug-19 15:42 47.912171 -122.279663 0 574ft 0kts
20-Aug-19 15:43 47.912171 -122.279663 0 574ft 0kts
20-Aug-19 15:44 47.912171 -122.279663 0 574ft 0kts
20-Aug-19 15:45 47.912258 -122.279663 0 574ft 7kts
20-Aug-19 15:46 47.913726 -122.283533 0 574ft 13kts
20-Aug-19 15:47 47.920510 -122.284020 354 574ft 13kts
20-Aug-19 15:48 47.922317 -122.284822 263 574ft 0kts
20-Aug-19 15:49 47.921765 -122.285827 179 574ft 3kts
20-Aug-19 15:50 47.912267 -122.285676 179 574ft 136kts
20-Aug-19 15:51 47.861367 -122.282097 173 2840ft 199kts
20-Aug-19 15:52 47.797068 -122.272435 174 4170ft 271kts
20-Aug-19 15:53 47.723661 -122.267033 175 2866ft 251kts
20-Aug-19 15:54 47.676273 -122.220222 125 3140ft 211kts
20-Aug-19 15:55 47.638059 -122.141469 125 5409ft 244kts
20-Aug-19 15:56 47.596750 -122.055888 143 7892ft 268kts
20-Aug-19 15:57 47.523231 -122.035050 175 11036ft 281kts
20-Aug-19 15:58 47.434637 -122.038150 199 12114ft 369kts
20-Aug-19 15:59 47.330170 -122.097349 201 14309ft 420kts
20-Aug-19 16:00 47.219080 -122.160410 201 17358ft 437kts
20-Aug-19 16:01 47.103136 -122.225585 201 20162ft 454kts
20-Aug-19 16:02 46.983904 -122.292187 201 22016ft 443kts
20-Aug-19 16:03 46.864300 -122.311416 181 22826ft 437kts
20-Aug-19 16:04 46.742601 -122.310028 181 22425ft 434kts
20-Aug-19 16:05 46.624205 -122.309828 181 19743ft 414kts
20-Aug-19 16:06 46.511213 -122.309750 181 16604ft 397kts
20-Aug-19 16:07 46.402917 -122.309706 181 13459ft 383kts
20-Aug-19 16:08 46.296858 -122.309625 181 11384ft 367kts
20-Aug-19 16:09 46.204662 -122.337684 201 10795ft 318kts
20-Aug-19 16:10 46.127694 -122.381713 201 10267ft 277kts
20-Aug-19 16:11 46.058444 -122.419828 200 9415ft 262kts
20-Aug-19 16:12 45.990632 -122.456321 200 8134ft 259kts
20-Aug-19 16:13 45.924812 -122.496278 213 7057ft 257kts
20-Aug-19 16:14 45.871226 -122.563584 221 6232ft 255kts
20-Aug-19 16:15 45.818292 -122.630794 220 5534ft 253kts
20-Aug-19 16:16 45.768216 -122.697006 227 4870ft 236kts
20-Aug-19 16:17 45.754569 -122.777055 253 4007ft 211kts
20-Aug-19 16:18 45.706733 -122.811949 186 3990ft 194kts
20-Aug-19 16:19 45.658217 -122.788499 128 2586ft 193kts
20-Aug-19 16:20 45.643069 -122.720630 115 1483ft 162kts
20-Aug-19 16:21 45.621474 -122.663643 119 1022ft 163kts
20-Aug-19 16:22 45.599464 -122.607439 120 223ft 161kts
20-Aug-19 16:23 45.584623 -122.569555 119 43ft 21kts
20-Aug-19 16:24 45.584575 -122.572574 298 43ft 12kts
20-Aug-19 16:25 45.587681 -122.580570 298 43ft 21kts
20-Aug-19 16:26 45.590366 -122.587498 298 43ft 18kts
20-Aug-19 16:27 45.592588 -122.593085 297 43ft 14kts
20-Aug-19 16:28 45.594213 -122.597583 256 43ft 11kts
20-Aug-19 16:29 45.591678 -122.601391 224 43ft 15kts
20-Aug-19 16:30 45.588992 -122.605271 226 43ft 12kts
20-Aug-19 16:31 45.586744 -122.608480 223 43ft 10kts
20-Aug-19 16:32 45.585023 -122.609142 229 43ft 6kts
20-Aug-19 16:33 45.584063 -122.609560 132 43ft 3kts
20-Aug-19 16:34 45.583906 -122.609336 134 43ft 0kts

Navigation Log

Ident Type
Flight plan parsing failed, navigation log unavailable